sensor_id;sensor_type;location;lat;lon;timestamp;temperature;humidity
3308;DHT22;1666;48.898;9.182;2023-05-27T00:01:45;15.30;1.00
3308;DHT22;1666;48.898;9.182;2023-05-27T00:04:15;15.30;1.00
3308;DHT22;1666;48.898;9.182;2023-05-27T00:06:45;15.30;1.00
3308;DHT22;1666;48.898;9.182;2023-05-27T00:09:15;15.20;1.00
3308;DHT22;1666;48.898;9.182;2023-05-27T00:11:48;15.20;1.00
3308;DHT22;1666;48.898;9.182;2023-05-27T00:14:18;15.10;1.00
3308;DHT22;1666;48.898;9.182;2023-05-27T00:16:49;15.10;1.00
3308;DHT22;1666;48.898;9.182;2023-05-27T00:19:19;15.10;1.00
3308;DHT22;1666;48.898;9.182;2023-05-27T00:21:50;15.00;1.00
3308;DHT22;1666;48.898;9.182;2023-05-27T00:24:22;15.00;1.00
3308;DHT22;1666;48.898;9.182;2023-05-27T00:26:55;15.00;1.00
3308;DHT22;1666;48.898;9.182;2023-05-27T00:29:25;15.00;1.00
3308;DHT22;1666;48.898;9.182;2023-05-27T00:31:55;14.90;1.00
3308;DHT22;1666;48.898;9.182;2023-05-27T00:34:25;14.90;1.00
3308;DHT22;1666;48.898;9.182;2023-05-27T00:36:55;14.90;1.00
3308;DHT22;1666;48.898;9.182;2023-05-27T00:39:25;14.90;1.00
3308;DHT22;1666;48.898;9.182;2023-05-27T00:41:58;14.90;1.00
3308;DHT22;1666;48.898;9.182;2023-05-27T00:44:28;14.80;1.00
3308;DHT22;1666;48.898;9.182;2023-05-27T00:46:57;14.80;1.00
3308;DHT22;1666;48.898;9.182;2023-05-27T00:49:28;14.80;1.00
3308;DHT22;1666;48.898;9.182;2023-05-27T00:51:58;14.80;1.00
3308;DHT22;1666;48.898;9.182;2023-05-27T00:54:29;14.70;1.00
3308;DHT22;1666;48.898;9.182;2023-05-27T00:57:01;14.70;1.00
3308;DHT22;1666;48.898;9.182;2023-05-27T00:59:33;14.70;1.00
3308;DHT22;1666;48.898;9.182;2023-05-27T01:02:03;14.60;1.00
3308;DHT22;1666;48.898;9.182;2023-05-27T01:04:34;14.60;1.00
3308;DHT22;1666;48.898;9.182;2023-05-27T01:07:10;14.50;1.00
3308;DHT22;1666;48.898;9.182;2023-05-27T01:09:49;14.50;1.00
3308;DHT22;1666;48.898;9.182;2023-05-27T01:12:28;14.40;1.00
3308;DHT22;1666;48.898;9.182;2023-05-27T01:15:02;14.30;1.00
3308;DHT22;1666;48.898;9.182;2023-05-27T01:17:35;14.30;1.00
3308;DHT22;1666;48.898;9.182;2023-05-27T01:20:10;14.20;1.00
3308;DHT22;1666;48.898;9.182;2023-05-27T01:22:45;14.20;1.00
3308;DHT22;1666;48.898;9.182;2023-05-27T01:25:19;14.20;1.00
3308;DHT22;1666;48.898;9.182;2023-05-27T01:27:49;14.10;1.00
3308;DHT22;1666;48.898;9.182;2023-05-27T01:30:20;14.10;1.00
3308;DHT22;1666;48.898;9.182;2023-05-27T01:32:54;14.10;1.00
3308;DHT22;1666;48.898;9.182;2023-05-27T01:35:29;14.00;1.00
3308;DHT22;1666;48.898;9.182;2023-05-27T01:38:07;14.00;1.00
3308;DHT22;1666;48.898;9.182;2023-05-27T01:40:39;14.00;1.00
3308;DHT22;1666;48.898;9.182;2023-05-27T01:43:09;14.00;1.00
3308;DHT22;1666;48.898;9.182;2023-05-27T01:45:42;13.90;1.00
3308;DHT22;1666;48.898;9.182;2023-05-27T01:48:12;13.90;1.00
3308;DHT22;1666;48.898;9.182;2023-05-27T01:50:43;13.90;1.00
3308;DHT22;1666;48.898;9.182;2023-05-27T01:53:15;14.00;1.00
3308;DHT22;1666;48.898;9.182;2023-05-27T01:55:45;13.90;1.00
3308;DHT22;1666;48.898;9.182;2023-05-27T01:58:15;13.90;1.00
3308;DHT22;1666;48.898;9.182;2023-05-27T02:00:47;13.80;1.00
3308;DHT22;1666;48.898;9.182;2023-05-27T02:03:18;13.80;1.00
3308;DHT22;1666;48.898;9.182;2023-05-27T02:05:48;13.70;1.00
3308;DHT22;1666;48.898;9.182;2023-05-27T02:08:21;13.80;1.00
3308;DHT22;1666;48.898;9.182;2023-05-27T02:10:51;13.80;1.00
3308;DHT22;1666;48.898;9.182;2023-05-27T02:13:21;13.80;1.00
3308;DHT22;1666;48.898;9.182;2023-05-27T02:15:51;13.70;1.00
3308;DHT22;1666;48.898;9.182;2023-05-27T02:18:21;13.60;1.00
3308;DHT22;1666;48.898;9.182;2023-05-27T02:20:53;13.60;1.00
3308;DHT22;1666;48.898;9.182;2023-05-27T02:23:25;13.50;1.00
3308;DHT22;1666;48.898;9.182;2023-05-27T02:25:55;13.50;1.00
3308;DHT22;1666;48.898;9.182;2023-05-27T02:28:25;13.40;1.00
3308;DHT22;1666;48.898;9.182;2023-05-27T02:30:56;13.30;1.00
3308;DHT22;1666;48.898;9.182;2023-05-27T02:33:26;13.30;1.00
3308;DHT22;1666;48.898;9.182;2023-05-27T02:35:57;13.30;1.00
3308;DHT22;1666;48.898;9.182;2023-05-27T02:38:30;13.20;1.00
3308;DHT22;1666;48.898;9.182;2023-05-27T02:41:00;13.20;1.00
3308;DHT22;1666;48.898;9.182;2023-05-27T02:43:30;13.10;1.00
3308;DHT22;1666;48.898;9.182;2023-05-27T02:46:00;13.10;1.00
3308;DHT22;1666;48.898;9.182;2023-05-27T02:48:30;13.00;1.00
3308;DHT22;1666;48.898;9.182;2023-05-27T02:51:00;12.90;1.00
3308;DHT22;1666;48.898;9.182;2023-05-27T02:53:32;12.80;1.00
3308;DHT22;1666;48.898;9.182;2023-05-27T02:56:02;12.80;1.00
3308;DHT22;1666;48.898;9.182;2023-05-27T02:58:32;12.70;1.00
3308;DHT22;1666;48.898;9.182;2023-05-27T03:01:02;12.60;1.00
3308;DHT22;1666;48.898;9.182;2023-05-27T03:03:32;12.60;1.00
3308;DHT22;1666;48.898;9.182;2023-05-27T03:06:03;12.50;1.00
3308;DHT22;1666;48.898;9.182;2023-05-27T03:08:36;12.40;1.00
3308;DHT22;1666;48.898;9.182;2023-05-27T03:11:06;12.40;1.00
3308;DHT22;1666;48.898;9.182;2023-05-27T03:13:35;12.30;1.00
3308;DHT22;1666;48.898;9.182;2023-05-27T03:16:06;12.20;1.00
3308;DHT22;1666;48.898;9.182;2023-05-27T03:18:38;12.20;1.00
3308;DHT22;1666;48.898;9.182;2023-05-27T03:21:08;12.20;1.00
3308;DHT22;1666;48.898;9.182;2023-05-27T03:23:40;12.10;1.00
3308;DHT22;1666;48.898;9.182;2023-05-27T03:26:11;12.10;1.00
3308;DHT22;1666;48.898;9.182;2023-05-27T03:28:43;12.00;1.00
3308;DHT22;1666;48.898;9.182;2023-05-27T03:31:13;12.10;1.00
3308;DHT22;1666;48.898;9.182;2023-05-27T03:33:44;12.10;1.00
3308;DHT22;1666;48.898;9.182;2023-05-27T03:36:14;12.00;1.00
3308;DHT22;1666;48.898;9.182;2023-05-27T03:38:46;12.00;1.00
3308;DHT22;1666;48.898;9.182;2023-05-27T03:41:16;12.00;1.00
3308;DHT22;1666;48.898;9.182;2023-05-27T03:43:46;12.00;1.00
3308;DHT22;1666;48.898;9.182;2023-05-27T03:46:16;12.00;1.00
3308;DHT22;1666;48.898;9.182;2023-05-27T03:48:46;12.20;1.00
3308;DHT22;1666;48.898;9.182;2023-05-27T03:51:16;12.40;1.00
3308;DHT22;1666;48.898;9.182;2023-05-27T03:53:49;12.50;1.00
3308;DHT22;1666;48.898;9.182;2023-05-27T03:56:19;12.70;1.00
3308;DHT22;1666;48.898;9.182;2023-05-27T03:58:50;12.60;1.00
3308;DHT22;1666;48.898;9.182;2023-05-27T04:01:20;12.50;1.00
3308;DHT22;1666;48.898;9.182;2023-05-27T04:03:50;12.80;1.00
3308;DHT22;1666;48.898;9.182;2023-05-27T04:06:20;12.90;1.00
3308;DHT22;1666;48.898;9.182;2023-05-27T04:08:53;12.90;1.00
3308;DHT22;1666;48.898;9.182;2023-05-27T04:11:26;13.20;1.00
3308;DHT22;1666;48.898;9.182;2023-05-27T04:13:56;13.30;1.00
3308;DHT22;1666;48.898;9.182;2023-05-27T04:16:26;13.40;1.00
3308;DHT22;1666;48.898;9.182;2023-05-27T04:18:58;13.50;1.00
3308;DHT22;1666;48.898;9.182;2023-05-27T04:21:28;13.60;1.00
3308;DHT22;1666;48.898;9.182;2023-05-27T04:24:02;13.80;1.00
3308;DHT22;1666;48.898;9.182;2023-05-27T04:26:31;14.20;1.00
3308;DHT22;1666;48.898;9.182;2023-05-27T04:29:02;14.60;1.00
3308;DHT22;1666;48.898;9.182;2023-05-27T04:31:36;14.90;1.00
3308;DHT22;1666;48.898;9.182;2023-05-27T04:34:06;14.90;1.00
3308;DHT22;1666;48.898;9.182;2023-05-27T04:36:36;14.90;1.00
3308;DHT22;1666;48.898;9.182;2023-05-27T04:39:08;15.30;1.00
3308;DHT22;1666;48.898;9.182;2023-05-27T04:41:40;15.60;1.00
3308;DHT22;1666;48.898;9.182;2023-05-27T04:44:12;15.60;1.00
3308;DHT22;1666;48.898;9.182;2023-05-27T04:46:42;16.30;1.00
3308;DHT22;1666;48.898;9.182;2023-05-27T04:49:12;16.10;1.00
3308;DHT22;1666;48.898;9.182;2023-05-27T04:51:43;16.20;1.00
3308;DHT22;1666;48.898;9.182;2023-05-27T04:54:16;16.40;1.00
3308;DHT22;1666;48.898;9.182;2023-05-27T04:56:47;17.00;1.00
3308;DHT22;1666;48.898;9.182;2023-05-27T04:59:19;16.50;1.00
3308;DHT22;1666;48.898;9.182;2023-05-27T05:01:56;16.50;1.00
3308;DHT22;1666;48.898;9.182;2023-05-27T05:04:48;16.50;1.00
3308;DHT22;1666;48.898;9.182;2023-05-27T05:07:19;16.90;1.00
3308;DHT22;1666;48.898;9.182;2023-05-27T05:09:52;17.30;1.00
3308;DHT22;1666;48.898;9.182;2023-05-27T05:12:22;17.40;1.00
3308;DHT22;1666;48.898;9.182;2023-05-27T05:14:52;17.60;1.00
3308;DHT22;1666;48.898;9.182;2023-05-27T05:17:22;17.60;1.00
3308;DHT22;1666;48.898;9.182;2023-05-27T05:19:53;17.80;1.00
3308;DHT22;1666;48.898;9.182;2023-05-27T05:22:23;18.40;1.00
3308;DHT22;1666;48.898;9.182;2023-05-27T05:24:58;18.20;1.00
3308;DHT22;1666;48.898;9.182;2023-05-27T05:27:28;17.90;1.00
3308;DHT22;1666;48.898;9.182;2023-05-27T05:29:58;18.10;1.00
3308;DHT22;1666;48.898;9.182;2023-05-27T05:32:28;17.60;1.00
3308;DHT22;1666;48.898;9.182;2023-05-27T05:34:58;18.10;1.00
3308;DHT22;1666;48.898;9.182;2023-05-27T05:37:29;17.90;1.00
3308;DHT22;1666;48.898;9.182;2023-05-27T05:40:01;18.00;1.00
3308;DHT22;1666;48.898;9.182;2023-05-27T05:42:31;17.60;1.00
3308;DHT22;1666;48.898;9.182;2023-05-27T05:45:01;17.60;1.00
3308;DHT22;1666;48.898;9.182;2023-05-27T05:47:32;17.50;1.00
3308;DHT22;1666;48.898;9.182;2023-05-27T05:50:02;17.40;1.00
3308;DHT22;1666;48.898;9.182;2023-05-27T05:52:32;17.80;1.00
3308;DHT22;1666;48.898;9.182;2023-05-27T05:55:06;17.60;1.00
3308;DHT22;1666;48.898;9.182;2023-05-27T05:57:36;17.50;1.00
3308;DHT22;1666;48.898;9.182;2023-05-27T06:00:07;17.10;1.00
3308;DHT22;1666;48.898;9.182;2023-05-27T06:02:38;17.10;1.00
3308;DHT22;1666;48.898;9.182;2023-05-27T06:05:09;17.30;1.00
3308;DHT22;1666;48.898;9.182;2023-05-27T06:07:39;17.90;1.00
3308;DHT22;1666;48.898;9.182;2023-05-27T06:10:12;18.20;1.00
3308;DHT22;1666;48.898;9.182;2023-05-27T06:12:43;17.00;1.00
3308;DHT22;1666;48.898;9.182;2023-05-27T06:15:13;17.00;1.00
3308;DHT22;1666;48.898;9.182;2023-05-27T06:17:44;17.10;1.00
3308;DHT22;1666;48.898;9.182;2023-05-27T06:20:14;17.50;1.00
3308;DHT22;1666;48.898;9.182;2023-05-27T06:22:45;17.50;1.00
3308;DHT22;1666;48.898;9.182;2023-05-27T06:25:18;17.50;1.00
3308;DHT22;1666;48.898;9.182;2023-05-27T06:27:47;17.40;1.00
3308;DHT22;1666;48.898;9.182;2023-05-27T06:30:17;17.80;1.00
3308;DHT22;1666;48.898;9.182;2023-05-27T06:32:47;17.80;1.00
3308;DHT22;1666;48.898;9.182;2023-05-27T06:35:18;17.20;1.00
3308;DHT22;1666;48.898;9.182;2023-05-27T06:37:48;17.50;1.00
3308;DHT22;1666;48.898;9.182;2023-05-27T06:40:20;18.00;1.00
3308;DHT22;1666;48.898;9.182;2023-05-27T06:42:50;18.00;1.00
3308;DHT22;1666;48.898;9.182;2023-05-27T06:45:20;16.90;1.00
3308;DHT22;1666;48.898;9.182;2023-05-27T06:47:50;16.50;1.00
3308;DHT22;1666;48.898;9.182;2023-05-27T06:50:20;16.60;1.00
3308;DHT22;1666;48.898;9.182;2023-05-27T06:52:50;15.80;1.00
3308;DHT22;1666;48.898;9.182;2023-05-27T06:55:23;16.20;1.00
3308;DHT22;1666;48.898;9.182;2023-05-27T06:57:53;16.40;1.00
3308;DHT22;1666;48.898;9.182;2023-05-27T07:00:23;16.50;1.00
3308;DHT22;1666;48.898;9.182;2023-05-27T07:02:53;16.90;1.00
3308;DHT22;1666;48.898;9.182;2023-05-27T07:05:23;17.10;1.00
3308;DHT22;1666;48.898;9.182;2023-05-27T07:07:53;16.70;1.00
3308;DHT22;1666;48.898;9.182;2023-05-27T07:10:25;16.70;1.00
3308;DHT22;1666;48.898;9.182;2023-05-27T07:12:55;17.10;1.00
3308;DHT22;1666;48.898;9.182;2023-05-27T07:15:25;17.20;1.00
3308;DHT22;1666;48.898;9.182;2023-05-27T07:17:55;17.40;1.00
3308;DHT22;1666;48.898;9.182;2023-05-27T07:20:26;17.30;1.00
3308;DHT22;1666;48.898;9.182;2023-05-27T07:22:58;17.30;1.00
3308;DHT22;1666;48.898;9.182;2023-05-27T07:25:31;17.50;1.00
3308;DHT22;1666;48.898;9.182;2023-05-27T07:28:01;17.60;1.00
3308;DHT22;1666;48.898;9.182;2023-05-27T07:30:31;17.50;1.00
3308;DHT22;1666;48.898;9.182;2023-05-27T07:33:01;17.40;1.00
3308;DHT22;1666;48.898;9.182;2023-05-27T07:35:31;17.60;1.00
3308;DHT22;1666;48.898;9.182;2023-05-27T07:38:01;17.50;1.00
3308;DHT22;1666;48.898;9.182;2023-05-27T07:40:33;17.60;1.00
3308;DHT22;1666;48.898;9.182;2023-05-27T07:43:03;17.90;1.00
3308;DHT22;1666;48.898;9.182;2023-05-27T07:45:33;17.90;1.00
3308;DHT22;1666;48.898;9.182;2023-05-27T07:48:03;18.00;1.00
3308;DHT22;1666;48.898;9.182;2023-05-27T07:50:33;18.10;1.00
3308;DHT22;1666;48.898;9.182;2023-05-27T07:53:03;17.80;1.00
3308;DHT22;1666;48.898;9.182;2023-05-27T07:55:36;18.30;1.00
3308;DHT22;1666;48.898;9.182;2023-05-27T07:58:06;18.00;1.00
3308;DHT22;1666;48.898;9.182;2023-05-27T08:00:36;18.20;1.00
3308;DHT22;1666;48.898;9.182;2023-05-27T08:03:06;18.30;1.00
3308;DHT22;1666;48.898;9.182;2023-05-27T08:05:36;18.20;1.00
3308;DHT22;1666;48.898;9.182;2023-05-27T08:08:06;18.30;1.00
3308;DHT22;1666;48.898;9.182;2023-05-27T08:10:38;18.60;1.00
3308;DHT22;1666;48.898;9.182;2023-05-27T08:13:08;19.00;1.00
3308;DHT22;1666;48.898;9.182;2023-05-27T08:15:38;19.40;1.00
3308;DHT22;1666;48.898;9.182;2023-05-27T08:18:08;19.10;1.00
3308;DHT22;1666;48.898;9.182;2023-05-27T08:20:39;18.80;1.00
3308;DHT22;1666;48.898;9.182;2023-05-27T08:23:09;18.80;1.00
3308;DHT22;1666;48.898;9.182;2023-05-27T08:25:41;19.00;1.00
3308;DHT22;1666;48.898;9.182;2023-05-27T08:28:11;19.40;1.00
3308;DHT22;1666;48.898;9.182;2023-05-27T08:30:41;19.60;1.00
3308;DHT22;1666;48.898;9.182;2023-05-27T08:33:11;19.40;1.00
3308;DHT22;1666;48.898;9.182;2023-05-27T08:35:42;18.80;1.00
3308;DHT22;1666;48.898;9.182;2023-05-27T08:38:12;19.30;1.00
3308;DHT22;1666;48.898;9.182;2023-05-27T08:40:44;19.30;1.00
3308;DHT22;1666;48.898;9.182;2023-05-27T08:43:15;19.50;1.00
3308;DHT22;1666;48.898;9.182;2023-05-27T08:45:45;19.60;1.00
3308;DHT22;1666;48.898;9.182;2023-05-27T08:48:16;19.40;1.00
3308;DHT22;1666;48.898;9.182;2023-05-27T08:50:46;19.70;1.00
3308;DHT22;1666;48.898;9.182;2023-05-27T08:53:17;19.60;1.00
3308;DHT22;1666;48.898;9.182;2023-05-27T08:55:51;19.40;1.00
3308;DHT22;1666;48.898;9.182;2023-05-27T08:58:21;19.80;1.00
3308;DHT22;1666;48.898;9.182;2023-05-27T09:00:52;20.20;1.00
3308;DHT22;1666;48.898;9.182;2023-05-27T09:03:22;19.90;1.00
3308;DHT22;1666;48.898;9.182;2023-05-27T09:05:55;19.90;1.00
3308;DHT22;1666;48.898;9.182;2023-05-27T09:08:25;20.00;1.00
3308;DHT22;1666;48.898;9.182;2023-05-27T09:11:25;20.00;1.00
3308;DHT22;1666;48.898;9.182;2023-05-27T09:14:01;20.00;1.00
3308;DHT22;1666;48.898;9.182;2023-05-27T09:16:31;20.00;1.00
3308;DHT22;1666;48.898;9.182;2023-05-27T09:19:01;20.20;1.00
3308;DHT22;1666;48.898;9.182;2023-05-27T09:21:32;20.00;1.00
3308;DHT22;1666;48.898;9.182;2023-05-27T09:24:02;20.40;1.00
3308;DHT22;1666;48.898;9.182;2023-05-27T09:26:36;20.70;1.00
3308;DHT22;1666;48.898;9.182;2023-05-27T09:29:06;20.70;1.00
3308;DHT22;1666;48.898;9.182;2023-05-27T09:31:39;20.60;1.00
3308;DHT22;1666;48.898;9.182;2023-05-27T09:34:10;20.20;1.00
3308;DHT22;1666;48.898;9.182;2023-05-27T09:36:44;20.40;1.00
3308;DHT22;1666;48.898;9.182;2023-05-27T09:39:15;20.70;1.00
3308;DHT22;1666;48.898;9.182;2023-05-27T09:41:53;20.90;1.00
3308;DHT22;1666;48.898;9.182;2023-05-27T09:44:24;20.90;1.00
3308;DHT22;1666;48.898;9.182;2023-05-27T09:46:58;20.60;1.00
3308;DHT22;1666;48.898;9.182;2023-05-27T09:49:29;20.40;1.00
3308;DHT22;1666;48.898;9.182;2023-05-27T09:52:02;21.20;1.00
3308;DHT22;1666;48.898;9.182;2023-05-27T09:54:34;21.30;1.00
3308;DHT22;1666;48.898;9.182;2023-05-27T09:57:08;21.40;1.00
3308;DHT22;1666;48.898;9.182;2023-05-27T09:59:39;21.30;1.00
3308;DHT22;1666;48.898;9.182;2023-05-27T10:02:13;21.30;1.00
3308;DHT22;1666;48.898;9.182;2023-05-27T10:04:45;21.20;1.00
3308;DHT22;1666;48.898;9.182;2023-05-27T10:07:17;21.70;1.00
3308;DHT22;1666;48.898;9.182;2023-05-27T10:09:58;21.80;1.00
3308;DHT22;1666;48.898;9.182;2023-05-27T10:12:31;21.70;1.00
3308;DHT22;1666;48.898;9.182;2023-05-27T10:15:01;21.60;1.00
3308;DHT22;1666;48.898;9.182;2023-05-27T10:17:40;21.70;1.00
3308;DHT22;1666;48.898;9.182;2023-05-27T10:20:11;21.60;1.00
3308;DHT22;1666;48.898;9.182;2023-05-27T10:22:43;21.70;1.00
3308;DHT22;1666;48.898;9.182;2023-05-27T10:25:14;22.20;1.00
3308;DHT22;1666;48.898;9.182;2023-05-27T10:27:48;21.50;1.00
3308;DHT22;1666;48.898;9.182;2023-05-27T10:30:18;22.10;1.00
3308;DHT22;1666;48.898;9.182;2023-05-27T10:32:48;21.90;1.00
3308;DHT22;1666;48.898;9.182;2023-05-27T10:35:18;21.80;1.00
3308;DHT22;1666;48.898;9.182;2023-05-27T10:37:48;21.90;1.00
3308;DHT22;1666;48.898;9.182;2023-05-27T10:40:24;22.10;1.00
3308;DHT22;1666;48.898;9.182;2023-05-27T10:43:01;21.90;1.00
3308;DHT22;1666;48.898;9.182;2023-05-27T10:45:32;22.20;1.00
3308;DHT22;1666;48.898;9.182;2023-05-27T10:48:02;22.00;1.00
3308;DHT22;1666;48.898;9.182;2023-05-27T10:50:34;22.20;1.00
3308;DHT22;1666;48.898;9.182;2023-05-27T10:53:06;22.20;1.00
3308;DHT22;1666;48.898;9.182;2023-05-27T10:55:36;22.70;1.00
3308;DHT22;1666;48.898;9.182;2023-05-27T10:58:11;22.20;1.00
3308;DHT22;1666;48.898;9.182;2023-05-27T11:00:42;22.20;1.00
3308;DHT22;1666;48.898;9.182;2023-05-27T11:03:19;22.30;1.00
3308;DHT22;1666;48.898;9.182;2023-05-27T11:05:58;22.60;1.00
3308;DHT22;1666;48.898;9.182;2023-05-27T11:08:29;22.80;1.00
3308;DHT22;1666;48.898;9.182;2023-05-27T11:11:00;22.50;1.00
3308;DHT22;1666;48.898;9.182;2023-05-27T11:13:35;22.50;1.00
3308;DHT22;1666;48.898;9.182;2023-05-27T11:16:06;22.40;1.00
3308;DHT22;1666;48.898;9.182;2023-05-27T11:18:37;22.60;1.00
3308;DHT22;1666;48.898;9.182;2023-05-27T11:21:08;23.30;1.00
3308;DHT22;1666;48.898;9.182;2023-05-27T11:23:40;23.20;1.00
3308;DHT22;1666;48.898;9.182;2023-05-27T11:26:11;22.90;1.00
3308;DHT22;1666;48.898;9.182;2023-05-27T11:28:49;23.20;1.00
3308;DHT22;1666;48.898;9.182;2023-05-27T11:31:27;23.20;1.00
3308;DHT22;1666;48.898;9.182;2023-05-27T11:33:58;23.00;1.00
3308;DHT22;1666;48.898;9.182;2023-05-27T11:36:28;23.00;1.00
3308;DHT22;1666;48.898;9.182;2023-05-27T11:39:00;22.80;1.00
3308;DHT22;1666;48.898;9.182;2023-05-27T11:41:32;22.80;1.00
3308;DHT22;1666;48.898;9.182;2023-05-27T11:44:06;22.80;1.00
3308;DHT22;1666;48.898;9.182;2023-05-27T11:46:37;23.00;1.00
3308;DHT22;1666;48.898;9.182;2023-05-27T11:49:09;23.00;1.00
3308;DHT22;1666;48.898;9.182;2023-05-27T11:51:41;22.70;1.00
3308;DHT22;1666;48.898;9.182;2023-05-27T11:54:18;22.60;1.00
3308;DHT22;1666;48.898;9.182;2023-05-27T11:56:49;23.20;1.00
3308;DHT22;1666;48.898;9.182;2023-05-27T11:59:23;23.30;1.00
3308;DHT22;1666;48.898;9.182;2023-05-27T12:01:53;22.90;1.00
3308;DHT22;1666;48.898;9.182;2023-05-27T12:04:23;22.80;1.00
3308;DHT22;1666;48.898;9.182;2023-05-27T12:06:53;22.80;1.00
3308;DHT22;1666;48.898;9.182;2023-05-27T12:09:27;23.50;1.00
3308;DHT22;1666;48.898;9.182;2023-05-27T12:11:57;23.50;1.00
3308;DHT22;1666;48.898;9.182;2023-05-27T12:14:30;23.30;1.00
3308;DHT22;1666;48.898;9.182;2023-05-27T12:17:00;22.80;1.00
3308;DHT22;1666;48.898;9.182;2023-05-27T12:19:29;23.30;1.00
3308;DHT22;1666;48.898;9.182;2023-05-27T12:22:01;23.60;1.00
3308;DHT22;1666;48.898;9.182;2023-05-27T12:24:31;23.40;1.00
3308;DHT22;1666;48.898;9.182;2023-05-27T12:27:01;23.10;1.00
3308;DHT22;1666;48.898;9.182;2023-05-27T12:29:34;23.80;1.00
3308;DHT22;1666;48.898;9.182;2023-05-27T12:32:04;23.50;1.00
3308;DHT22;1666;48.898;9.182;2023-05-27T12:34:34;23.40;1.00
3308;DHT22;1666;48.898;9.182;2023-05-27T12:37:04;23.40;1.00
3308;DHT22;1666;48.898;9.182;2023-05-27T12:39:37;23.30;1.00
3308;DHT22;1666;48.898;9.182;2023-05-27T12:42:07;23.30;1.00
3308;DHT22;1666;48.898;9.182;2023-05-27T12:44:40;23.60;1.00
3308;DHT22;1666;48.898;9.182;2023-05-27T12:47:10;23.70;1.00
3308;DHT22;1666;48.898;9.182;2023-05-27T12:49:40;23.80;1.00
3308;DHT22;1666;48.898;9.182;2023-05-27T12:52:10;23.70;1.00
3308;DHT22;1666;48.898;9.182;2023-05-27T12:54:40;23.40;1.00
3308;DHT22;1666;48.898;9.182;2023-05-27T12:57:10;23.70;1.00
3308;DHT22;1666;48.898;9.182;2023-05-27T12:59:43;23.70;1.00
3308;DHT22;1666;48.898;9.182;2023-05-27T13:02:13;23.20;1.00
3308;DHT22;1666;48.898;9.182;2023-05-27T13:04:43;23.70;1.00
3308;DHT22;1666;48.898;9.182;2023-05-27T13:07:14;23.90;1.00
3308;DHT22;1666;48.898;9.182;2023-05-27T13:09:44;23.70;1.00
3308;DHT22;1666;48.898;9.182;2023-05-27T13:12:14;23.70;1.00
3308;DHT22;1666;48.898;9.182;2023-05-27T13:14:47;23.70;1.00
3308;DHT22;1666;48.898;9.182;2023-05-27T13:17:17;23.70;1.00
3308;DHT22;1666;48.898;9.182;2023-05-27T13:19:47;23.80;1.00
3308;DHT22;1666;48.898;9.182;2023-05-27T13:22:17;24.10;1.00
3308;DHT22;1666;48.898;9.182;2023-05-27T13:24:47;24.20;1.00
3308;DHT22;1666;48.898;9.182;2023-05-27T13:27:17;24.60;1.00
3308;DHT22;1666;48.898;9.182;2023-05-27T13:29:50;23.90;1.00
3308;DHT22;1666;48.898;9.182;2023-05-27T13:32:20;24.10;1.00
3308;DHT22;1666;48.898;9.182;2023-05-27T13:34:50;24.10;1.00
3308;DHT22;1666;48.898;9.182;2023-05-27T13:37:22;23.70;1.00
3308;DHT22;1666;48.898;9.182;2023-05-27T13:39:52;23.80;1.00
3308;DHT22;1666;48.898;9.182;2023-05-27T13:42:22;24.30;1.00
3308;DHT22;1666;48.898;9.182;2023-05-27T13:44:55;24.20;1.00
3308;DHT22;1666;48.898;9.182;2023-05-27T13:47:25;23.80;1.00
3308;DHT22;1666;48.898;9.182;2023-05-27T13:49:56;23.80;1.00
3308;DHT22;1666;48.898;9.182;2023-05-27T13:52:26;23.90;1.00
3308;DHT22;1666;48.898;9.182;2023-05-27T13:54:56;23.80;1.00
3308;DHT22;1666;48.898;9.182;2023-05-27T13:57:25;24.00;1.00
3308;DHT22;1666;48.898;9.182;2023-05-27T13:59:58;24.00;1.00
3308;DHT22;1666;48.898;9.182;2023-05-27T14:02:28;24.10;1.00
3308;DHT22;1666;48.898;9.182;2023-05-27T14:04:58;23.90;1.00
3308;DHT22;1666;48.898;9.182;2023-05-27T14:07:28;24.10;1.00
3308;DHT22;1666;48.898;9.182;2023-05-27T14:09:58;24.30;1.00
3308;DHT22;1666;48.898;9.182;2023-05-27T14:12:28;24.10;1.00
3308;DHT22;1666;48.898;9.182;2023-05-27T14:15:00;24.10;1.00
3308;DHT22;1666;48.898;9.182;2023-05-27T14:17:31;24.40;1.00
3308;DHT22;1666;48.898;9.182;2023-05-27T14:20:01;24.10;1.00
3308;DHT22;1666;48.898;9.182;2023-05-27T14:22:31;23.80;1.00
3308;DHT22;1666;48.898;9.182;2023-05-27T14:25:01;24.20;1.00
3308;DHT22;1666;48.898;9.182;2023-05-27T14:27:31;23.90;1.00
3308;DHT22;1666;48.898;9.182;2023-05-27T14:30:04;23.90;1.00
3308;DHT22;1666;48.898;9.182;2023-05-27T14:32:34;24.30;1.00
3308;DHT22;1666;48.898;9.182;2023-05-27T14:35:06;24.30;1.00
3308;DHT22;1666;48.898;9.182;2023-05-27T14:37:36;24.40;1.00
3308;DHT22;1666;48.898;9.182;2023-05-27T14:40:07;24.10;1.00
3308;DHT22;1666;48.898;9.182;2023-05-27T14:42:37;24.30;1.00
3308;DHT22;1666;48.898;9.182;2023-05-27T14:45:10;24.50;1.00
3308;DHT22;1666;48.898;9.182;2023-05-27T14:47:40;24.50;1.00
3308;DHT22;1666;48.898;9.182;2023-05-27T14:50:10;24.30;1.00
3308;DHT22;1666;48.898;9.182;2023-05-27T14:52:40;24.30;1.00
3308;DHT22;1666;48.898;9.182;2023-05-27T14:55:10;24.20;1.00
3308;DHT22;1666;48.898;9.182;2023-05-27T14:57:40;24.20;1.00
3308;DHT22;1666;48.898;9.182;2023-05-27T15:00:13;24.30;1.00
3308;DHT22;1666;48.898;9.182;2023-05-27T15:02:43;24.00;1.00
3308;DHT22;1666;48.898;9.182;2023-05-27T15:05:15;24.40;1.00
3308;DHT22;1666;48.898;9.182;2023-05-27T15:07:44;24.60;1.00
3308;DHT22;1666;48.898;9.182;2023-05-27T15:10:14;24.60;1.00
3308;DHT22;1666;48.898;9.182;2023-05-27T15:12:45;24.40;1.00
3308;DHT22;1666;48.898;9.182;2023-05-27T15:15:19;24.40;1.00
3308;DHT22;1666;48.898;9.182;2023-05-27T15:17:50;24.40;1.00
3308;DHT22;1666;48.898;9.182;2023-05-27T15:20:20;24.50;1.00
3308;DHT22;1666;48.898;9.182;2023-05-27T15:22:50;24.40;1.00
3308;DHT22;1666;48.898;9.182;2023-05-27T15:25:20;24.30;1.00
3308;DHT22;1666;48.898;9.182;2023-05-27T15:27:50;23.90;1.00
3308;DHT22;1666;48.898;9.182;2023-05-27T15:30:22;24.00;1.00
3308;DHT22;1666;48.898;9.182;2023-05-27T15:32:53;24.10;1.00
3308;DHT22;1666;48.898;9.182;2023-05-27T15:35:23;24.20;1.00
3308;DHT22;1666;48.898;9.182;2023-05-27T15:37:54;24.30;1.00
3308;DHT22;1666;48.898;9.182;2023-05-27T15:40:24;24.40;1.00
3308;DHT22;1666;48.898;9.182;2023-05-27T15:42:54;24.60;1.00
3308;DHT22;1666;48.898;9.182;2023-05-27T15:45:27;24.40;1.00
3308;DHT22;1666;48.898;9.182;2023-05-27T15:47:57;24.20;1.00
3308;DHT22;1666;48.898;9.182;2023-05-27T15:50:27;24.60;1.00
3308;DHT22;1666;48.898;9.182;2023-05-27T15:52:57;24.50;1.00
3308;DHT22;1666;48.898;9.182;2023-05-27T15:55:27;24.60;1.00
3308;DHT22;1666;48.898;9.182;2023-05-27T15:57:57;24.40;1.00
3308;DHT22;1666;48.898;9.182;2023-05-27T16:00:29;24.40;1.00
3308;DHT22;1666;48.898;9.182;2023-05-27T16:02:59;24.00;1.00
3308;DHT22;1666;48.898;9.182;2023-05-27T16:05:29;24.40;1.00
3308;DHT22;1666;48.898;9.182;2023-05-27T16:07:59;24.80;1.00
3308;DHT22;1666;48.898;9.182;2023-05-27T16:10:29;24.90;1.00
3308;DHT22;1666;48.898;9.182;2023-05-27T16:12:59;24.40;1.00
3308;DHT22;1666;48.898;9.182;2023-05-27T16:15:31;24.60;1.00
3308;DHT22;1666;48.898;9.182;2023-05-27T16:18:02;24.50;1.00
3308;DHT22;1666;48.898;9.182;2023-05-27T16:20:32;24.60;1.00
3308;DHT22;1666;48.898;9.182;2023-05-27T16:23:02;24.40;1.00
3308;DHT22;1666;48.898;9.182;2023-05-27T16:25:33;24.40;1.00
3308;DHT22;1666;48.898;9.182;2023-05-27T16:28:05;24.30;1.00
3308;DHT22;1666;48.898;9.182;2023-05-27T16:30:37;24.60;1.00
3308;DHT22;1666;48.898;9.182;2023-05-27T16:33:07;24.50;1.00
3308;DHT22;1666;48.898;9.182;2023-05-27T16:35:37;24.50;1.00
3308;DHT22;1666;48.898;9.182;2023-05-27T16:38:07;24.30;1.00
3308;DHT22;1666;48.898;9.182;2023-05-27T16:40:37;24.40;1.00
3308;DHT22;1666;48.898;9.182;2023-05-27T16:43:07;24.30;1.00